Arcadia, IN

2:01 PM EDT on August 28, 2015 (GMT -0400)
Becks Corporate | | Change Station
CLOSE
Current Station
Personal Weather Station
Location: Atlanta, IN
Elevation: 866 ft
Nearby Weather Stations

Elev 866 ft 40.19 °N, 86.05 °W | Updated 17 seconds ago

Clear
Clear
77.0 °F
Feels Like 79 °F
N
4.0
Wind Variable Wind from SE
Gusts 4.0 mph

Today
High -- | Low -- °F
--% Chance of Precip.
Yesterday
High -- | Low -- °F
Precip. -- in
7:07 AM 8:22 PM
Waxing Gibbous, 98% visible
Pressure 30.17 in
Visibility 10.0 miles
Clouds Clear
Heat Index 79 °F
Dew Point 61 °F
Humidity 57%
Rainfall 0.00 in
Snow Depth Not available.
UV 10 out of 12
Pollen 10.50 out of 12
Air Quality Not available.
Flu Activity Not available.
METAR KTYQ 281755Z AUTO 00000KT 10SM CLR 25/12 A3017 RMK AO2 T02510123 10254 20122
Pressure 30.17 in
Visibility 10.0 miles
Clouds Clear
Heat Index 79 °F
Dew Point 61 °F
Humidity 57%
Rainfall 0.00 in
Snow Depth Not available.
UV 10 out of 12
Pollen 10.50 out of 12
Air Quality Not available.
Flu Activity Not available.
METAR KTYQ 281755Z AUTO 00000KT 10SM CLR 25/12 A3017 RMK AO2 T02510123 10254 20122

10-Day Weather Forecast

×

Almanac

Astronomy

Aug. 28, 2015 Rise Set
Actual Time
Civil Twilight
Nautical Twilight
Astronomical Twilight
Moon
Length of Visible Light
Length of Day
Tomorrow will be .
, % of the Moon is Illuminated

Today's Extremes

State Highs State Lows

Community

WunderPhotos

Upload Photos

1,850,447 photos uploaded!

WunderBlogs® & News

Nearby

Air Quality

  Air Quality AQ Index Pollutant
Not available.

Snow Depth

Station Depth Elevation

Earthquake Activity

City Distance Mag. Time & Date
Minimum magnitude displayed is 2.5.

Coastal Water Temperatures

Place Temperature

Stations

Nearby Weather Stations

Station Location Temp. Windchill Dew Point Humidity Wind Precip. Elev Updated Type